Time;durP1;ratioP1;P1;durP2;ratioP2;P2;SDS_P1;SDS_P2;PMS_P1;PMS_P2;Temp;Humidity;BMP_temperature;BMP_pressure;BME280_temperature;BME280_humidity;BME280_pressure;Samples;Min_cycle;Max_cycle;Signal;HPM_P1;HPM_P2
2022/12/07 00:01:06;;;;;;;;;;;;;;;36.98;nan;101393.03;5068307;28;19920;-58
2022/12/07 00:03:33;;;;;;;;;;;;;;;36.11;nan;101395.50;5062227;28;20019;-58
2022/12/07 00:06:01;;;;;;;;;;;;;;;37.81;nan;101388.28;5099002;28;20280;-58
2022/12/07 00:08:28;;;;;;;;;;;;;;;38.72;nan;101392.38;5067263;28;19924;-58
2022/12/07 00:10:54;;;;;;;;;;;;;;;36.99;nan;101398.28;5067886;28;19986;-58
2022/12/07 00:13:22;;;;;;;;;;;;;;;36.73;nan;101399.88;5067151;28;19924;-58
2022/12/07 00:15:50;;;;;;;;;;;;;;;38.36;nan;101398.06;5065338;28;20131;-58
2022/12/07 00:18:18;;;;;;;;;;;;;;;39.48;nan;101394.88;5066831;28;19927;-59
2022/12/07 00:20:45;;;;;;;;;;;;;;;38.89;nan;101401.72;5069545;28;20371;-58
2022/12/07 00:23:16;;;;;;;;;;;;;;;38.00;nan;101407.34;5069829;28;19916;-58
2022/12/07 00:25:44;;;;;;;;;;;;;;;37.95;nan;101407.88;5093193;28;19927;-58
2022/12/07 00:28:10;;;;;;;;;;;;;;;38.21;nan;101399.63;5067564;28;20298;-58
2022/12/07 00:30:37;;;;;;;;;;;;;;;38.69;nan;101407.47;5063719;28;20310;-58
2022/12/07 00:33:06;;;;;;;;;;;;;;;38.27;nan;101406.41;5065436;28;19925;-58
2022/12/07 00:35:33;;;;;;;;;;;;;;;37.58;nan;101416.69;5064023;28;19940;-58
2022/12/07 00:38:00;;;;;;;;;;;;;;;37.23;nan;101424.59;5066460;28;20299;-59
2022/12/07 00:40:27;;;;;;;;;;;;;;;34.77;nan;101432.31;5068745;28;20710;-58
2022/12/07 00:42:53;;;;;;;;;;;;;;;35.47;nan;101427.34;5072141;28;19920;-58
2022/12/07 00:45:19;;;;;;;;;;;;;;;35.98;nan;101431.25;5064835;28;19925;-60
2022/12/07 00:47:46;;;;;;;;;;;;;;;35.63;nan;101421.91;5065971;28;19925;-58
2022/12/07 00:50:12;;;;;;;;;;;;;;;36.70;nan;101431.09;5102523;28;19924;-58
2022/12/07 00:52:39;;;;;;;;;;;;;;;38.02;nan;101430.41;5066809;28;19982;-59
2022/12/07 00:55:05;;;;;;;;;;;;;;;36.85;nan;101433.31;5066447;28;20286;-59
2022/12/07 00:57:34;;;;;;;;;;;;;;;37.97;nan;101445.13;5069054;28;19964;-58
2022/12/07 01:00:05;;;;;;;;;;;;;;;38.29;nan;101444.47;5074114;28;19920;-60
2022/12/07 01:02:32;;;;;;;;;;;;;;;38.33;nan;101433.03;5063150;28;20012;-59
2022/12/07 01:04:58;;;;;;;;;;;;;;;38.28;nan;101436.41;5067495;28;20367;-59
2022/12/07 01:07:25;;;;;;;;;;;;;;;38.06;nan;101447.38;5094586;28;19978;-58
2022/12/07 01:09:52;;;;;;;;;;;;;;;38.02;nan;101453.13;5074515;28;20034;-58
2022/12/07 01:12:20;;;;;;;;;;;;;;;37.67;nan;101448.13;5063248;28;19921;-58
2022/12/07 01:14:47;;;;;;;;;;;;;;;37.68;nan;101452.56;5071770;28;20367;-62
2022/12/07 01:17:15;;;;;;;;;;;;;;;37.74;nan;101448.03;5066352;28;19920;-59
2022/12/07 01:19:44;;;;;;;;;;;;;;;37.66;nan;101455.84;5072989;28;20019;-60
2022/12/07 01:22:12;;;;;;;;;;;;;;;37.48;nan;101456.16;5064233;28;19943;-60
2022/12/07 01:24:42;;;;;;;;;;;;;;;37.35;nan;101460.88;5063703;28;20007;-60
2022/12/07 01:27:12;;;;;;;;;;;;;;;37.30;nan;101464.19;5064604;28;19921;-60
2022/12/07 01:29:40;;;;;;;;;;;;;;;37.25;nan;101458.97;5057901;28;19956;-61
2022/12/07 01:32:08;;;;;;;;;;;;;;;37.30;nan;101464.19;5064405;28;19924;-60
2022/12/07 01:34:34;;;;;;;;;;;;;;;36.69;nan;101457.84;5064032;28;20095;-60
2022/12/07 01:37:02;;;;;;;;;;;;;;;36.98;nan;101458.22;5061481;28;19921;-62
2022/12/07 01:39:29;;;;;;;;;;;;;;;36.92;nan;101463.56;5067933;28;19921;-62
2022/12/07 01:41:55;;;;;;;;;;;;;;;36.89;nan;101464.44;5063011;28;20437;-60
2022/12/07 01:44:33;;;;;;;;;;;;;;;37.03;nan;101466.25;5064302;28;19920;-61
2022/12/07 01:47:05;;;;;;;;;;;;;;;36.97;nan;101474.41;5067003;28;19936;-61
2022/12/07 01:49:39;;;;;;;;;;;;;;;37.07;nan;101473.44;5067865;28;19956;-61
2022/12/07 01:52:26;;;;;;;;;;;;;;;37.16;nan;101481.41;5063606;28;19952;-61
2022/12/07 01:55:04;;;;;;;;;;;;;;;37.19;nan;101483.41;5071683;28;19921;-61
2022/12/07 01:57:32;;;;;;;;;;;;;;;36.94;nan;101474.47;5072953;28;20023;-61
2022/12/07 01:59:58;;;;;;;;;;;;;;;36.87;nan;101475.41;5076505;28;20433;-60
2022/12/07 02:02:43;;;;;;;;;;;;;;;36.83;nan;101477.50;5076136;28;19968;-61
2022/12/07 02:05:11;;;;;;;;;;;;;;;36.76;nan;101486.84;5077783;28;19974;-62
2022/12/07 02:07:38;;;;;;;;;;;;;;;36.56;nan;101486.72;5076136;28;20369;-62
2022/12/07 02:10:18;;;;;;;;;;;;;;;36.60;nan;101487.47;5078334;28;19924;-62
2022/12/07 02:12:46;;;;;;;;;;;;;;;36.65;nan;101489.06;5076715;28;19990;-61
2022/12/07 02:15:14;;;;;;;;;;;;;;;36.72;nan;101497.44;5076103;28;19926;-62
2022/12/07 02:17:47;;;;;;;;;;;;;;;36.52;nan;101488.00;5076630;28;19967;-62
2022/12/07 02:20:16;;;;;;;;;;;;;;;36.65;nan;101491.88;5076464;28;19935;-61
2022/12/07 02:22:42;;;;;;;;;;;;;;;36.35;nan;101495.50;5106943;27;19916;-62
2022/12/07 02:25:18;;;;;;;;;;;;;;;36.12;nan;101515.19;5077206;28;19921;-62
2022/12/07 02:27:50;;;;;;;;;;;;;;;36.33;nan;101505.66;5074157;28;20460;-61
2022/12/07 02:30:16;;;;;;;;;;;;;;;36.36;nan;101514.09;5073758;28;20371;-62
2022/12/07 02:32:48;;;;;;;;;;;;;;;36.13;nan;101511.94;5077422;28;19966;-62
2022/12/07 02:35:24;;;;;;;;;;;;;;;35.83;nan;101508.97;5078760;28;20378;-62
2022/12/07 02:38:08;;;;;;;;;;;;;;;35.86;nan;101516.66;5078216;28;19921;-62
2022/12/07 02:40:44;;;;;;;;;;;;;;;35.90;nan;101509.72;5079625;28;19927;-62
2022/12/07 02:43:19;;;;;;;;;;;;;;;36.01;nan;101520.94;5075277;28;19920;-61
2022/12/07 02:45:47;;;;;;;;;;;;;;;35.98;nan;101516.94;5073542;28;19925;-61
2022/12/07 02:48:15;;;;;;;;;;;;;;;36.05;nan;101520.91;5076773;28;20302;-62
2022/12/07 02:50:45;;;;;;;;;;;;;;;35.80;nan;101516.28;5081903;28;19920;-62
2022/12/07 02:53:30;;;;;;;;;;;;;;;35.90;nan;101514.59;5085148;28;19925;-61
2022/12/07 02:55:57;;;;;;;;;;;;;;;35.94;nan;101518.22;5075251;28;19927;-62
2022/12/07 02:58:32;;;;;;;;;;;;;;;35.90;nan;101523.06;5067209;28;19920;-61
2022/12/07 03:01:09;;;;;;;;;;;;;;;35.84;nan;101524.78;5071452;28;20389;-62
2022/12/07 03:03:37;;;;;;;;;;;;;;;35.78;nan;101532.09;5073488;28;19921;-63
2022/12/07 03:06:03;;;;;;;;;;;;;;;35.71;nan;101522.41;5071055;28;19924;-62
2022/12/07 03:08:44;;;;;;;;;;;;;;;35.66;nan;101519.25;5058969;28;19921;-63
2022/12/07 03:11:15;;;;;;;;;;;;;;;35.68;nan;101531.75;5058408;28;20383;-62
2022/12/07 03:13:48;;;;;;;;;;;;;;;35.63;nan;101532.22;5056419;28;19927;-61
2022/12/07 03:16:20;;;;;;;;;;;;;;;35.61;nan;101534.66;5063920;28;20422;-61
2022/12/07 03:18:59;;;;;;;;;;;;;;;35.48;nan;101533.53;5068544;28;20026;-61
2022/12/07 03:21:29;;;;;;;;;;;;;;;35.41;nan;101533.63;5056454;28;20003;-61
2022/12/07 03:23:57;;;;;;;;;;;;;;;35.50;nan;101548.06;5060158;28;19960;-62
2022/12/07 03:26:27;;;;;;;;;;;;;;;35.37;nan;101538.47;5056891;28;19924;-62
2022/12/07 03:28:55;;;;;;;;;;;;;;;35.48;nan;101538.41;5061689;28;20290;-61
2022/12/07 03:31:42;;;;;;;;;;;;;;;35.42;nan;101553.00;5072930;28;19920;-61
2022/12/07 03:34:40;;;;;;;;;;;;;;;35.37;nan;101549.78;5072681;28;19930;-62
2022/12/07 03:37:14;;;;;;;;;;;;;;;35.33;nan;101543.31;5031776;28;19920;-62
2022/12/07 03:39:54;;;;;;;;;;;;;;;35.08;nan;101555.63;5072564;28;19920;-63
2022/12/07 03:42:20;;;;;;;;;;;;;;;35.20;nan;101550.72;5057574;28;20390;-63
2022/12/07 03:44:47;;;;;;;;;;;;;;;35.32;nan;101558.69;5072477;28;19947;-62
2022/12/07 03:47:19;;;;;;;;;;;;;;;35.25;nan;101558.75;5072017;28;20027;-63
2022/12/07 03:49:55;;;;;;;;;;;;;;;35.22;nan;101560.38;5084442;28;19921;-62
2022/12/07 03:52:35;;;;;;;;;;;;;;;35.25;nan;101564.41;5058859;28;19924;-63
2022/12/07 03:55:16;;;;;;;;;;;;;;;35.09;nan;101562.88;5069936;28;19924;-63
2022/12/07 03:57:45;;;;;;;;;;;;;;;35.01;nan;101571.78;5080666;28;19920;-63
2022/12/07 04:00:12;;;;;;;;;;;;;;;35.02;nan;101577.06;5085329;28;20013;-63
2022/12/07 04:02:38;;;;;;;;;;;;;;;34.25;nan;101585.34;5085374;28;19924;-61
2022/12/07 04:05:06;;;;;;;;;;;;;;;34.54;nan;101576.84;5073212;28;20007;-61
2022/12/07 04:07:32;;;;;;;;;;;;;;;34.76;nan;101571.91;5075956;28;20019;-61
2022/12/07 04:09:58;;;;;;;;;;;;;;;34.93;nan;101575.88;5072165;28;19916;-62
2022/12/07 04:12:25;;;;;;;;;;;;;;;34.27;nan;101584.94;5071147;28;20027;-61
2022/12/07 04:14:51;;;;;;;;;;;;;;;33.85;nan;101583.00;5068167;28;19927;-61
2022/12/07 04:17:19;;;;;;;;;;;;;;;33.68;nan;101593.03;5068430;28;20372;-63
2022/12/07 04:19:45;;;;;;;;;;;;;;;32.58;nan;101587.06;5062694;28;19931;-60
2022/12/07 04:22:11;;;;;;;;;;;;;;;33.71;nan;101600.69;5071210;28;20337;-60
2022/12/07 04:24:38;;;;;;;;;;;;;;;34.49;nan;101586.56;5072912;28;19932;-61
2022/12/07 04:27:05;;;;;;;;;;;;;;;34.59;nan;101584.88;5072757;28;20396;-61
2022/12/07 04:29:31;;;;;;;;;;;;;;;34.63;nan;101585.66;5071421;28;19979;-61
2022/12/07 04:31:57;;;;;;;;;;;;;;;34.45;nan;101585.72;5073029;28;19973;-61
2022/12/07 04:34:24;;;;;;;;;;;;;;;34.47;nan;101583.34;5073706;28;20298;-61
2022/12/07 04:36:50;;;;;;;;;;;;;;;34.37;nan;101584.16;5072692;28;19928;-60
2022/12/07 04:39:20;;;;;;;;;;;;;;;34.48;nan;101586.97;5072693;28;19916;-62
2022/12/07 04:41:47;;;;;;;;;;;;;;;34.32;nan;101590.19;5072828;28;19920;-61
2022/12/07 04:44:14;;;;;;;;;;;;;;;34.28;nan;101592.19;5071994;28;19916;-61
2022/12/07 04:46:41;;;;;;;;;;;;;;;34.36;nan;101591.03;5072543;28;19920;-61
2022/12/07 04:49:07;;;;;;;;;;;;;;;33.59;nan;101595.47;5074175;28;19939;-61
2022/12/07 04:51:34;;;;;;;;;;;;;;;33.63;nan;101599.91;5076815;28;19921;-61
2022/12/07 04:54:00;;;;;;;;;;;;;;;32.94;nan;101605.75;5075062;28;20390;-62
2022/12/07 04:56:26;;;;;;;;;;;;;;;33.25;nan;101607.06;5076211;28;19925;-62
2022/12/07 04:58:53;;;;;;;;;;;;;;;33.68;nan;101604.31;5079279;28;20474;-61
2022/12/07 05:01:20;;;;;;;;;;;;;;;33.51;nan;101608.75;5076973;28;19943;-61
2022/12/07 05:03:47;;;;;;;;;;;;;;;32.92;nan;101619.44;5076973;28;20289;-61
2022/12/07 05:06:13;;;;;;;;;;;;;;;32.64;nan;101605.19;5076658;28;19917;-61
2022/12/07 05:08:40;;;;;;;;;;;;;;;33.76;nan;101610.78;5077979;28;19927;-62
2022/12/07 05:11:07;;;;;;;;;;;;;;;34.56;nan;101624.44;5076160;28;19927;-60
2022/12/07 05:13:34;;;;;;;;;;;;;;;34.74;nan;101613.88;5076702;28;20378;-61
2022/12/07 05:16:01;;;;;;;;;;;;;;;34.99;nan;101617.41;5076588;28;20384;-62
2022/12/07 05:18:27;;;;;;;;;;;;;;;34.88;nan;101616.69;5075725;28;19927;-61
2022/12/07 05:20:53;;;;;;;;;;;;;;;34.79;nan;101619.09;5075063;28;19943;-61
2022/12/07 05:23:20;;;;;;;;;;;;;;;34.25;nan;101615.59;5075442;28;20534;-61
2022/12/07 05:25:46;;;;;;;;;;;;;;;34.57;nan;101626.84;5076431;28;19974;-61
2022/12/07 05:28:13;;;;;;;;;;;;;;;34.27;nan;101618.81;5077782;28;19970;-62
2022/12/07 05:30:39;;;;;;;;;;;;;;;33.97;nan;101621.28;5079360;28;19920;-61
2022/12/07 05:33:05;;;;;;;;;;;;;;;33.89;nan;101626.09;5076945;28;19920;-61
2022/12/07 05:35:32;;;;;;;;;;;;;;;34.03;nan;101631.75;5088249;28;19916;-61
2022/12/07 05:37:59;;;;;;;;;;;;;;;33.80;nan;101628.50;5087743;28;20272;-61
2022/12/07 05:40:26;;;;;;;;;;;;;;;33.71;nan;101634.53;5088950;28;19916;-61
2022/12/07 05:42:54;;;;;;;;;;;;;;;33.96;nan;101643.03;5081424;28;20015;-60
2022/12/07 05:45:20;;;;;;;;;;;;;;;34.19;nan;101637.78;5084818;28;19920;-60
2022/12/07 05:47:46;;;;;;;;;;;;;;;34.34;nan;101641.41;5079904;27;20386;-61
2022/12/07 05:50:13;;;;;;;;;;;;;;;34.38;nan;101645.03;5074733;28;19920;-61
2022/12/07 05:52:40;;;;;;;;;;;;;;;34.48;nan;101640.59;5074645;28;19920;-62
2022/12/07 05:55:06;;;;;;;;;;;;;;;34.59;nan;101643.38;5070694;28;20050;-62
2022/12/07 05:57:33;;;;;;;;;;;;;;;34.54;nan;101644.59;5073608;28;19929;-60
2022/12/07 05:59:59;;;;;;;;;;;;;;;34.64;nan;101654.25;5065849;28;19931;-60
2022/12/07 06:02:26;;;;;;;;;;;;;;;34.48;nan;101646.25;5070004;28;19928;-61
2022/12/07 06:04:52;;;;;;;;;;;;;;;34.60;nan;101659.09;5073114;28;19933;-60
2022/12/07 06:07:18;;;;;;;;;;;;;;;34.51;nan;101651.06;5066284;28;19925;-62
2022/12/07 06:09:49;;;;;;;;;;;;;;;34.56;nan;101659.13;5072110;28;20007;-60
2022/12/07 06:12:33;;;;;;;;;;;;;;;34.53;nan;101659.94;5070850;28;20015;-60
2022/12/07 06:14:59;;;;;;;;;;;;;;;33.72;nan;101666.34;5062061;28;20019;-60
2022/12/07 06:17:25;;;;;;;;;;;;;;;34.09;nan;101657.53;5064181;28;19917;-62
2022/12/07 06:19:52;;;;;;;;;;;;;;;34.16;nan;101663.19;5063445;28;20410;-62
2022/12/07 06:22:18;;;;;;;;;;;;;;;34.14;nan;101662.78;5064438;28;19960;-62
2022/12/07 06:24:45;;;;;;;;;;;;;;;33.70;nan;101661.13;5062495;28;19950;-62
2022/12/07 06:27:11;;;;;;;;;;;;;;;33.68;nan;101660.72;5061254;28;20399;-61
2022/12/07 06:29:37;;;;;;;;;;;;;;;33.69;nan;101659.50;5062972;28;20291;-61
2022/12/07 06:32:04;;;;;;;;;;;;;;;33.54;nan;101660.69;5070391;28;20007;-60
2022/12/07 06:34:31;;;;;;;;;;;;;;;33.84;nan;101663.16;5078819;28;19924;-60
2022/12/07 06:36:57;;;;;;;;;;;;;;;33.92;nan;101657.13;5071372;28;19921;-61
2022/12/07 06:39:25;;;;;;;;;;;;;;;33.95;nan;101658.38;5069206;28;19946;-60
2022/12/07 06:41:51;;;;;;;;;;;;;;;33.82;nan;101666.38;5072024;28;20401;-60
2022/12/07 06:44:18;;;;;;;;;;;;;;;33.81;nan;101663.97;5071144;28;19931;-60
2022/12/07 06:46:45;;;;;;;;;;;;;;;33.65;nan;101667.16;5075425;28;19923;-60
2022/12/07 06:49:11;;;;;;;;;;;;;;;33.55;nan;101663.09;5106345;27;19921;-60
2022/12/07 06:51:40;;;;;;;;;;;;;;;33.57;nan;101668.34;5071896;28;19922;-60
2022/12/07 06:54:08;;;;;;;;;;;;;;;33.70;nan;101666.75;5071228;28;19924;-60
2022/12/07 06:56:34;;;;;;;;;;;;;;;33.59;nan;101663.13;5066837;28;20382;-60
2022/12/07 06:59:00;;;;;;;;;;;;;;;33.46;nan;101662.69;5073609;28;19930;-60
2022/12/07 07:01:27;;;;;;;;;;;;;;;33.51;nan;101658.69;5071865;28;20006;-59
2022/12/07 07:03:53;;;;;;;;;;;;;;;33.59;nan;101660.31;5072481;28;19916;-64
2022/12/07 07:06:21;;;;;;;;;;;;;;;33.56;nan;101658.28;5067833;28;20291;-61
2022/12/07 07:08:47;;;;;;;;;;;;;;;33.55;nan;101656.66;5069056;28;19978;-61
2022/12/07 07:11:13;;;;;;;;;;;;;;;33.50;nan;101655.06;5067462;28;19947;-61
2022/12/07 07:13:40;;;;;;;;;;;;;;;33.41;nan;101651.81;5081427;28;19921;-60
2022/12/07 07:16:06;;;;;;;;;;;;;;;33.50;nan;101655.06;5067871;28;19916;-61
2022/12/07 07:18:33;;;;;;;;;;;;;;;33.47;nan;101660.69;5062117;28;19928;-59
2022/12/07 07:20:59;;;;;;;;;;;;;;;33.45;nan;101657.47;5073656;28;19928;-61
2022/12/07 07:23:26;;;;;;;;;;;;;;;33.49;nan;101652.63;5073557;28;19927;-61
2022/12/07 07:25:52;;;;;;;;;;;;;;;33.35;nan;101642.94;5075863;28;19916;-61
2022/12/07 07:28:18;;;;;;;;;;;;;;;33.35;nan;101653.41;5073738;28;19924;-59
2022/12/07 07:30:45;;;;;;;;;;;;;;;33.21;nan;101651.31;5073125;28;19916;-60
2022/12/07 07:33:11;;;;;;;;;;;;;;;33.31;nan;101647.72;5072587;28;19924;-61
2022/12/07 07:35:38;;;;;;;;;;;;;;;33.49;nan;101649.81;5074181;28;19962;-59
2022/12/07 07:38:05;;;;;;;;;;;;;;;33.28;nan;101647.72;5076006;28;19969;-61
2022/12/07 07:40:31;;;;;;;;;;;;;;;31.51;nan;101648.88;5074776;28;20024;-61
2022/12/07 07:42:58;;;;;;;;;;;;;;;32.70;nan;101657.94;5074429;28;19927;-59
2022/12/07 07:45:25;;;;;;;;;;;;;;;32.88;nan;101648.78;5074473;28;20019;-61
2022/12/07 07:47:51;;;;;;;;;;;;;;;33.02;nan;101649.63;5075775;28;19968;-60
2022/12/07 07:50:18;;;;;;;;;;;;;;;33.11;nan;101652.09;5070520;28;19962;-60
2022/12/07 07:52:45;;;;;;;;;;;;;;;33.11;nan;101657.72;5074337;28;19920;-59
2022/12/07 07:55:11;;;;;;;;;;;;;;;33.21;nan;101653.31;5069415;28;19928;-59
2022/12/07 07:57:38;;;;;;;;;;;;;;;33.21;nan;101659.75;5065453;28;20023;-58
2022/12/07 08:00:06;;;;;;;;;;;;;;;33.20;nan;101663.78;5065471;28;19931;-60
2022/12/07 08:02:38;;;;;;;;;;;;;;;33.01;nan;101661.31;5063380;28;19921;-61
2022/12/07 08:05:04;;;;;;;;;;;;;;;32.87;nan;101655.63;5064448;28;20379;-61
2022/12/07 08:07:31;;;;;;;;;;;;;;;32.90;nan;101666.09;5065065;28;19952;-61
2022/12/07 08:09:57;;;;;;;;;;;;;;;32.83;nan;101651.97;5064542;28;19917;-61
2022/12/07 08:12:23;;;;;;;;;;;;;;;32.87;nan;101656.44;5070597;28;19921;-63
2022/12/07 08:14:50;;;;;;;;;;;;;;;32.64;nan;101658.69;5063624;28;19964;-63
2022/12/07 08:17:16;;;;;;;;;;;;;;;32.91;nan;101656.44;5061219;28;19921;-62
2022/12/07 08:19:42;;;;;;;;;;;;;;;32.99;nan;101658.06;5069546;28;19974;-62
2022/12/07 08:22:08;;;;;;;;;;;;;;;32.90;nan;101655.63;5056389;28;20362;-62
2022/12/07 08:24:35;;;;;;;;;;;;;;;32.93;nan;101659.66;5047212;28;19989;-62
2022/12/07 08:27:02;;;;;;;;;;;;;;;32.71;nan;101661.53;5061969;28;19927;-62
2022/12/07 08:29:28;;;;;;;;;;;;;;;32.69;nan;101659.13;5067383;28;20019;-62
2022/12/07 08:31:54;;;;;;;;;;;;;;;32.75;nan;101665.19;5056455;28;20025;-61
2022/12/07 08:34:21;;;;;;;;;;;;;;;32.67;nan;101664.31;5055226;28;19920;-62
2022/12/07 08:36:47;;;;;;;;;;;;;;;32.50;nan;101667.88;5061777;28;19970;-61
2022/12/07 08:39:13;;;;;;;;;;;;;;;32.60;nan;101681.19;5059608;28;20022;-60
2022/12/07 08:41:39;;;;;;;;;;;;;;;32.58;nan;101677.16;5051490;28;19923;-60
2022/12/07 08:44:06;;;;;;;;;;;;;;;32.54;nan;101677.13;5056177;28;20386;-61
2022/12/07 08:46:38;;;;;;;;;;;;;;;32.52;nan;101668.28;5065946;28;19916;-60
2022/12/07 08:49:13;;;;;;;;;;;;;;;31.56;nan;101670.19;5062985;28;19921;-61
2022/12/07 08:51:39;;;;;;;;;;;;;;;31.54;nan;101675.41;5069119;28;19924;-61
2022/12/07 08:54:07;;;;;;;;;;;;;;;32.13;nan;101679.19;5056131;28;19920;-60
2022/12/07 08:56:34;;;;;;;;;;;;;;;32.34;nan;101678.59;5079586;28;19920;-60
2022/12/07 08:59:02;;;;;;;;;;;;;;;32.47;nan;101668.63;5083384;28;20003;-60
2022/12/07 09:01:28;;;;;;;;;;;;;;;32.59;nan;101668.31;5078122;28;19921;-60
2022/12/07 09:03:54;;;;;;;;;;;;;;;32.60;nan;101661.47;5089231;28;19923;-60
2022/12/07 09:06:21;;;;;;;;;;;;;;;32.49;nan;101668.22;5077987;28;19974;-59
2022/12/07 09:08:50;;;;;;;;;;;;;;;32.52;nan;101670.28;5083795;28;19940;-60
2022/12/07 09:11:16;;;;;;;;;;;;;;;32.09;nan;101673.53;5084270;28;20390;-59
2022/12/07 09:13:42;;;;;;;;;;;;;;;32.10;nan;101661.09;5075990;28;19917;-60
2022/12/07 09:16:08;;;;;;;;;;;;;;;32.40;nan;101665.78;5076078;28;19971;-59
2022/12/07 09:18:34;;;;;;;;;;;;;;;32.52;nan;101665.47;5080446;28;19970;-60
2022/12/07 09:21:01;;;;;;;;;;;;;;;32.55;nan;101667.47;5083189;28;20381;-59
2022/12/07 09:23:27;;;;;;;;;;;;;;;32.57;nan;101670.72;5077578;28;19924;-59
2022/12/07 09:25:53;;;;;;;;;;;;;;;32.46;nan;101669.81;5089109;28;19963;-61
2022/12/07 09:28:20;;;;;;;;;;;;;;;32.39;nan;101666.97;5077902;28;19917;-60
2022/12/07 09:30:47;;;;;;;;;;;;;;;32.57;nan;101667.91;5083577;28;19921;-62
2022/12/07 09:33:13;;;;;;;;;;;;;;;32.61;nan;101662.28;5084871;28;20378;-60
2022/12/07 09:35:49;;;;;;;;;;;;;;;32.81;nan;101668.44;5078918;28;20313;-60
2022/12/07 09:38:17;;;;;;;;;;;;;;;32.95;nan;101668.53;5080735;28;20408;-60
2022/12/07 09:40:43;;;;;;;;;;;;;;;32.80;nan;101670.47;5087720;28;19923;-63
2022/12/07 09:43:14;;;;;;;;;;;;;;;32.91;nan;101667.72;5088146;28;19924;-61
2022/12/07 09:45:41;;;;;;;;;;;;;;;32.96;nan;101656.06;5079687;28;19920;-62
2022/12/07 09:48:17;;;;;;;;;;;;;;;33.23;nan;101668.66;5062840;28;19920;-61
2022/12/07 09:50:43;;;;;;;;;;;;;;;32.11;nan;101681.59;5087594;28;19964;-62
2022/12/07 09:53:21;;;;;;;;;;;;;;;32.37;nan;101672.19;5084411;28;20440;-62
2022/12/07 09:55:47;;;;;;;;;;;;;;;32.91;nan;101679.78;5092203;28;19922;-62
2022/12/07 09:58:19;;;;;;;;;;;;;;;32.84;nan;101676.91;5080014;28;19920;-62
2022/12/07 10:00:45;;;;;;;;;;;;;;;32.82;nan;101675.69;5086919;28;19944;-62
2022/12/07 10:03:12;;;;;;;;;;;;;;;33.11;nan;101680.25;5087846;28;19920;-62
2022/12/07 10:05:45;;;;;;;;;;;;;;;33.11;nan;101679.47;5079540;28;19966;-60
2022/12/07 10:08:12;;;;;;;;;;;;;;;33.24;nan;101670.25;5063688;28;20018;-61
2022/12/07 10:10:39;;;;;;;;;;;;;;;33.30;nan;101674.28;5087400;28;19927;-61
2022/12/07 10:13:07;;;;;;;;;;;;;;;33.47;nan;101671.97;5083769;28;20011;-61
2022/12/07 10:15:52;;;;;;;;;;;;;;;33.40;nan;101677.59;5090844;28;20442;-62
2022/12/07 10:18:30;;;;;;;;;;;;;;;33.35;nan;101676.75;5080414;28;19924;-62
2022/12/07 10:21:01;;;;;;;;;;;;;;;33.31;nan;101681.53;5085015;28;19921;-61
2022/12/07 10:23:28;;;;;;;;;;;;;;;33.32;nan;101677.56;5083816;28;20390;-60
2022/12/07 10:25:54;;;;;;;;;;;;;;;33.35;nan;101675.94;5092147;28;19920;-61
2022/12/07 10:28:21;;;;;;;;;;;;;;;33.34;nan;101680.78;5080584;28;20435;-61
2022/12/07 10:30:56;;;;;;;;;;;;;;;33.21;nan;101687.13;5086255;28;19916;-59
2022/12/07 10:33:29;;;;;;;;;;;;;;;32.93;nan;101679.38;5088302;28;20393;-62
2022/12/07 10:35:55;;;;;;;;;;;;;;;33.32;nan;101676.72;5077989;28;19978;-61
2022/12/07 10:38:26;;;;;;;;;;;;;;;33.53;nan;101676.00;5087808;28;19920;-61
2022/12/07 10:41:06;;;;;;;;;;;;;;;33.32;nan;101676.72;5082787;28;19920;-61
2022/12/07 10:43:32;;;;;;;;;;;;;;;33.38;nan;101663.88;5077763;28;20386;-61
2022/12/07 10:46:21;;;;;;;;;;;;;;;33.53;nan;101670.34;5089736;28;19920;-62
2022/12/07 10:49:08;;;;;;;;;;;;;;;33.42;nan;101680.81;5081989;28;20053;-61
2022/12/07 10:52:03;;;;;;;;;;;;;;;33.20;nan;101680.69;5077988;28;20301;-62
2022/12/07 10:54:40;;;;;;;;;;;;;;;33.34;nan;101682.78;5071951;28;19971;-62
2022/12/07 10:57:21;;;;;;;;;;;;;;;33.37;nan;101687.63;5083032;28;20393;-63
2022/12/07 10:59:48;;;;;;;;;;;;;;;33.45;nan;101694.09;5079961;28;19927;-63
2022/12/07 11:02:40;;;;;;;;;;;;;;;33.59;nan;101692.13;5078865;28;19916;-62
2022/12/07 11:05:18;;;;;;;;;;;;;;;33.11;nan;101699.19;5066504;28;20007;-61
2022/12/07 11:07:45;;;;;;;;;;;;;;;33.03;nan;101701.13;5091174;28;19927;-61
2022/12/07 11:10:11;;;;;;;;;;;;;;;33.17;nan;101701.22;5078393;28;19972;-62
2022/12/07 11:12:47;;;;;;;;;;;;;;;33.54;nan;101695.31;5086911;28;19924;-61
2022/12/07 11:15:16;;;;;;;;;;;;;;;33.57;nan;101707.81;5086752;28;19985;-62
2022/12/07 11:17:45;;;;;;;;;;;;;;;33.62;nan;101702.59;5077652;28;19917;-62
2022/12/07 11:20:11;;;;;;;;;;;;;;;33.81;nan;101709.09;5090327;28;20015;-62
2022/12/07 11:22:54;;;;;;;;;;;;;;;33.92;nan;101719.19;5081997;28;19962;-62
2022/12/07 11:25:21;;;;;;;;;;;;;;;34.01;nan;101718.00;5081540;28;19920;-62
2022/12/07 11:27:50;;;;;;;;;;;;;;;33.63;nan;101718.31;5077540;28;19921;-62
2022/12/07 11:30:22;;;;;;;;;;;;;;;33.86;nan;101706.69;5089056;28;19916;-61
2022/12/07 11:33:07;;;;;;;;;;;;;;;34.01;nan;101712.34;5082971;28;19964;-63
2022/12/07 11:35:40;;;;;;;;;;;;;;;34.25;nan;101718.00;5078764;28;19924;-62
2022/12/07 11:38:17;;;;;;;;;;;;;;;34.29;nan;101725.66;5090633;28;20015;-63
2022/12/07 11:40:45;;;;;;;;;;;;;;;34.37;nan;101725.28;5081564;28;19924;-62
2022/12/07 11:43:17;;;;;;;;;;;;;;;34.39;nan;101727.69;5081395;28;19921;-62
2022/12/07 11:45:46;;;;;;;;;;;;;;;34.39;nan;101720.03;5090423;28;20005;-62
2022/12/07 11:48:12;;;;;;;;;;;;;;;34.49;nan;101733.34;5077807;28;20393;-63
2022/12/07 11:50:45;;;;;;;;;;;;;;;34.39;nan;101731.31;5085945;28;20447;-62
2022/12/07 11:53:11;;;;;;;;;;;;;;;34.47;nan;101727.31;5080820;28;20085;-63
2022/12/07 11:55:43;;;;;;;;;;;;;;;34.41;nan;101737.38;5089413;28;19920;-61
2022/12/07 11:58:23;;;;;;;;;;;;;;;34.51;nan;101735.78;5076931;28;19971;-62
2022/12/07 12:00:52;;;;;;;;;;;;;;;33.86;nan;101734.09;5084469;28;20077;-63
2022/12/07 12:03:31;;;;;;;;;;;;;;;34.23;nan;101730.91;5086683;28;19917;-62
2022/12/07 12:05:58;;;;;;;;;;;;;;;34.32;nan;101728.50;5076846;28;19923;-62
2022/12/07 12:08:37;;;;;;;;;;;;;;;34.24;nan;101726.88;5087674;28;19949;-62
2022/12/07 12:11:15;;;;;;;;;;;;;;;34.21;nan;101730.50;5084509;28;20022;-62
2022/12/07 12:13:50;;;;;;;;;;;;;;;34.52;nan;101741.00;5076862;28;20297;-62
2022/12/07 12:16:19;;;;;;;;;;;;;;;34.53;nan;101745.44;5077955;28;19997;-62
2022/12/07 12:18:49;;;;;;;;;;;;;;;34.32;nan;101744.63;5084561;28;20013;-62
2022/12/07 12:21:22;;;;;;;;;;;;;;;34.03;nan;101747.41;5086093;28;20424;-62
2022/12/07 12:23:54;;;;;;;;;;;;;;;33.19;nan;101752.34;5076325;28;20401;-61
2022/12/07 12:26:22;;;;;;;;;;;;;;;32.57;nan;101751.53;5087968;28;20015;-62
2022/12/07 12:28:48;;;;;;;;;;;;;;;32.32;nan;101754.16;5082361;28;19994;-61
2022/12/07 12:31:17;;;;;;;;;;;;;;;31.32;nan;101763.44;5080181;28;19920;-61
2022/12/07 12:33:45;;;;;;;;;;;;;;;32.16;nan;101768.44;5077650;28;19922;-62
2022/12/07 12:36:15;;;;;;;;;;;;;;;33.37;nan;101765.72;5076950;28;19924;-62
2022/12/07 12:38:50;;;;;;;;;;;;;;;33.40;nan;101765.75;5084772;28;19927;-61
2022/12/07 12:41:34;;;;;;;;;;;;;;;31.42;nan;101769.22;5092974;28;19994;-62
2022/12/07 12:44:02;;;;;;;;;;;;;;;32.50;nan;101774.81;5076015;28;20290;-61
2022/12/07 12:46:28;;;;;;;;;;;;;;;33.64;nan;101776.31;5086590;28;19913;-62
2022/12/07 12:48:55;;;;;;;;;;;;;;;34.28;nan;101778.47;5082763;28;19924;-62
2022/12/07 12:51:41;;;;;;;;;;;;;;;34.03;nan;101791.75;5078991;28;20401;-62
2022/12/07 12:54:27;;;;;;;;;;;;;;;34.18;nan;101799.03;5067125;28;19920;-63
2022/12/07 12:56:56;;;;;;;;;;;;;;;34.73;nan;101805.13;5082767;28;19928;-61
2022/12/07 12:59:22;;;;;;;;;;;;;;;34.73;nan;101807.94;5086530;28;20018;-62
2022/12/07 13:02:09;;;;;;;;;;;;;;;34.68;nan;101818.84;5074795;28;20528;-62
2022/12/07 13:04:50;;;;;;;;;;;;;;;34.26;nan;101820.41;5085329;28;19920;-62
2022/12/07 13:07:35;;;;;;;;;;;;;;;34.42;nan;101811.56;5085606;28;19920;-61
2022/12/07 13:10:02;;;;;;;;;;;;;;;34.29;nan;101827.25;5077850;28;19927;-62